Time;durP1;ratioP1;P1;durP2;ratioP2;P2;SDS_P1;SDS_P2;PMS_P1;PMS_P2;Temp;Humidity;BMP_temperature;BMP_pressure;BME280_temperature;BME280_humidity;BME280_pressure;Samples;Min_cycle;Max_cycle;Signal;HPM_P1;HPM_P2
2023/10/08 00:01:17;;;;;;;2.53;0.75;;;;;;;16.18;85.67;101398.53;5047464;28;20048;-69
2023/10/08 00:03:50;;;;;;;3.15;0.68;;;;;;;16.15;85.87;101402.28;5044646;28;20024;-70
2023/10/08 00:06:19;;;;;;;6.07;0.50;;;;;;;16.16;85.68;101403.13;5042822;28;20443;-70
2023/10/08 00:08:45;;;;;;;3.05;0.50;;;;;;;16.18;85.54;101399.34;5041362;28;20021;-69
2023/10/08 00:11:11;;;;;;;2.55;0.75;;;;;;;16.21;84.73;101391.16;5048329;28;20136;-69
2023/10/08 00:13:39;;;;;;;3.88;0.90;;;;;;;16.18;85.13;101394.09;5046899;28;20029;-69
2023/10/08 00:16:09;;;;;;;2.63;0.65;;;;;;;15.94;86.74;101388.75;5051004;28;20086;-70
2023/10/08 00:18:37;;;;;;;1.65;0.60;;;;;;;15.74;87.50;101392.56;5042006;28;20040;-70
2023/10/08 00:23:42;;;;;;;1.30;0.50;;;;;;;15.56;88.98;101385.59;5047362;28;20041;-69
2023/10/08 00:26:10;;;;;;;1.52;0.52;;;;;;;15.50;89.80;101390.59;5046437;28;20401;-69
2023/10/08 00:28:36;;;;;;;4.93;0.45;;;;;;;15.49;89.53;101386.31;5047075;28;20034;-69
2023/10/08 00:31:12;;;;;;;1.55;0.50;;;;;;;15.55;89.18;101397.03;5056023;28;20029;-69
2023/10/08 00:33:39;;;;;;;2.25;0.70;;;;;;;15.49;89.52;101381.91;5055185;28;20831;-69
2023/10/08 00:36:17;;;;;;;2.35;0.77;;;;;;;15.36;90.31;101375.41;5050973;28;20112;-69
2023/10/08 00:38:51;;;;;;;2.28;0.73;;;;;;;15.30;90.49;101361.06;5047448;28;20369;-69
2023/10/08 00:41:27;;;;;;;1.80;0.60;;;;;;;15.38;89.86;101369.00;5043674;28;20123;-69
2023/10/08 00:43:56;;;;;;;2.47;0.70;;;;;;;15.54;89.06;101379.63;5037558;28;20029;-69
2023/10/08 00:48:54;;;;;;;3.75;0.57;;;;;;;15.73;88.77;101367.28;5042795;28;20036;-70
2023/10/08 00:53:58;;;;;;;2.17;0.73;;;;;;;15.73;87.55;101362.84;5051661;28;20041;-69
2023/10/08 00:56:46;;;;;;;1.30;0.30;;;;;;;15.75;87.43;101362.69;5047943;28;20037;-70
2023/10/08 00:59:15;;;;;;;1.77;0.65;;;;;;;15.74;87.13;101355.78;5039284;28;20042;-70
2023/10/08 01:01:59;;;;;;;4.75;0.57;;;;;;;15.71;87.20;101354.28;5049803;28;20029;-69
2023/10/08 01:04:34;;;;;;;2.92;0.93;;;;;;;15.67;88.55;101352.97;5053239;28;20103;-69
2023/10/08 01:07:15;;;;;;;1.60;0.57;;;;;;;15.63;89.32;101348.16;5051214;28;20028;-70
2023/10/08 01:09:42;;;;;;;2.70;0.60;;;;;;;15.64;88.92;101361.16;5044670;28;20431;-70
2023/10/08 01:14:43;;;;;;;2.05;0.68;;;;;;;15.62;88.22;101354.41;5048543;28;20090;-69
2023/10/08 01:17:14;;;;;;;3.17;1.00;;;;;;;15.59;88.22;101356.38;5050416;28;20384;-70
2023/10/08 01:19:42;;;;;;;1.83;0.70;;;;;;;15.62;88.00;101354.41;5049775;28;20106;-70
2023/10/08 01:22:13;;;;;;;2.95;0.65;;;;;;;15.65;88.33;101359.34;5054708;28;20094;-70
2023/10/08 01:24:38;;;;;;;2.25;0.77;;;;;;;15.62;88.60;101355.22;5045512;28;20029;-70
2023/10/08 01:27:05;;;;;;;1.70;0.70;;;;;;;15.60;88.47;101351.94;5043868;28;20118;-70
2023/10/08 01:29:31;;;;;;;1.88;0.70;;;;;;;15.57;88.98;101345.22;5053110;28;20135;-70
2023/10/08 01:31:57;;;;;;;6.05;0.52;;;;;;;15.56;88.99;101346.19;5051803;28;20373;-70
2023/10/08 01:34:30;;;;;;;6.60;0.85;;;;;;;15.57;88.63;101341.75;5047404;28;20055;-70
2023/10/08 01:37:01;;;;;;;4.35;1.10;;;;;;;15.54;88.79;101342.88;5050109;28;20123;-69
2023/10/08 01:39:27;;;;;;;2.90;0.73;;;;;;;15.57;88.65;101339.97;5043408;28;20476;-70
2023/10/08 01:41:52;;;;;;;1.95;0.68;;;;;;;15.57;88.31;101336.50;5051080;28;20128;-70
2023/10/08 01:44:18;;;;;;;1.77;0.80;;;;;;;15.55;88.27;101328.75;5051265;28;20040;-69
2023/10/08 01:46:43;;;;;;;6.10;0.75;;;;;;;15.54;88.01;101327.09;5050089;28;20079;-70
2023/10/08 01:49:14;;;;;;;1.95;0.70;;;;;;;15.55;87.82;101328.75;5050220;28;20056;-69
2023/10/08 01:51:46;;;;;;;1.55;0.70;;;;;;;15.48;88.13;101319.84;5049513;28;20037;-69
2023/10/08 01:54:14;;;;;;;2.65;1.05;;;;;;;15.42;88.79;101328.34;5052463;28;20032;-69
2023/10/08 01:56:41;;;;;;;2.97;0.70;;;;;;;15.40;89.13;101332.09;5050185;28;20139;-69
2023/10/08 01:59:09;;;;;;;2.88;0.75;;;;;;;15.39;88.99;101328.66;5048684;28;20511;-69
2023/10/08 02:01:35;;;;;;;5.50;0.80;;;;;;;15.37;89.67;101327.97;5045129;28;20496;-69
2023/10/08 02:04:01;;;;;;;3.35;0.82;;;;;;;15.34;89.61;101323.03;5047972;28;20037;-69
2023/10/08 02:06:27;;;;;;;3.97;1.10;;;;;;;15.34;89.66;101325.66;5048430;28;20101;-70
2023/10/08 02:08:53;;;;;;;3.30;0.73;;;;;;;15.34;89.72;101320.41;5052000;28;20111;-70
2023/10/08 02:11:20;;;;;;;2.22;0.57;;;;;;;15.37;90.43;101329.78;5050737;28;20198;-69
2023/10/08 02:13:46;;;;;;;3.10;0.60;;;;;;;15.34;90.97;101317.78;5044948;28;20485;-69
2023/10/08 02:16:18;;;;;;;3.08;0.60;;;;;;;15.28;92.51;101315.78;5050819;28;20123;-69
2023/10/08 02:18:44;;;;;;;1.85;0.75;;;;;;;15.23;92.77;101328.53;5049364;28;20036;-69
2023/10/08 02:21:10;;;;;;;2.53;0.80;;;;;;;15.19;92.72;101328.03;5049995;28;20071;-69
2023/10/08 02:23:37;;;;;;;2.38;0.70;;;;;;;15.12;92.96;101326.97;5048570;28;20030;-69
2023/10/08 02:26:02;;;;;;;1.95;0.70;;;;;;;15.07;92.85;101318.78;5047725;28;20082;-70
2023/10/08 02:28:28;;;;;;;3.50;0.65;;;;;;;15.06;92.63;101313.66;5054065;28;20040;-69
2023/10/08 02:30:54;;;;;;;3.97;0.80;;;;;;;15.11;91.97;101312.25;5043934;28;20029;-70
2023/10/08 02:33:19;;;;;;;2.50;0.98;;;;;;;15.16;91.94;101311.75;5053151;28;20056;-70
2023/10/08 02:35:46;;;;;;;3.00;0.65;;;;;;;15.16;91.67;101319.63;5049916;28;20485;-70
2023/10/08 02:38:16;;;;;;;2.83;0.52;;;;;;;15.17;91.84;101321.28;5051302;28;20377;-69
2023/10/08 02:40:46;;;;;;;3.95;0.77;;;;;;;15.15;92.00;101320.59;5047788;28;20453;-70
2023/10/08 02:43:14;;;;;;;2.92;0.80;;;;;;;15.12;92.21;101310.44;5040133;28;20032;-69
2023/10/08 02:45:40;;;;;;;1.95;0.63;;;;;;;15.09;92.38;101316.81;5049267;28;20136;-70
2023/10/08 02:48:13;;;;;;;2.53;1.00;;;;;;;15.05;91.90;101307.59;5052078;28;20037;-69
2023/10/08 02:50:40;;;;;;;1.48;0.43;;;;;;;15.04;92.24;101302.50;5047421;28;20115;-69
2023/10/08 02:53:10;;;;;;;1.92;0.70;;;;;;;15.06;92.00;101301.38;5047687;28;20048;-69
2023/10/08 02:55:43;;;;;;;1.65;0.65;;;;;;;15.02;93.09;101304.44;5047567;28;20087;-69
2023/10/08 02:58:18;;;;;;;2.92;0.93;;;;;;;15.02;92.97;101305.28;5049170;28;20100;-69
2023/10/08 03:00:46;;;;;;;2.22;0.75;;;;;;;15.02;93.92;101307.91;5049991;28;20051;-70
2023/10/08 03:03:16;;;;;;;3.08;0.90;;;;;;;14.99;94.59;101310.00;5046156;28;20029;-69
2023/10/08 03:05:52;;;;;;;2.83;0.60;;;;;;;14.91;95.57;101306.34;5052023;28;20029;-70
2023/10/08 03:08:21;;;;;;;2.85;0.75;;;;;;;14.85;96.44;101296.44;5047777;28;20431;-70
2023/10/08 03:10:55;;;;;;;2.53;0.90;;;;;;;14.85;96.49;101293.81;5050502;28;20059;-69
2023/10/08 03:13:21;;;;;;;2.70;0.90;;;;;;;14.79;95.91;101302.31;5047608;28;20037;-69
2023/10/08 03:15:57;;;;;;;2.47;0.70;;;;;;;14.81;96.17;101302.16;5048292;28;20028;-69
2023/10/08 03:18:23;;;;;;;3.25;0.90;;;;;;;14.81;96.51;101302.16;5048640;28;20049;-69
2023/10/08 03:20:49;;;;;;;2.08;0.60;;;;;;;14.82;96.69;101302.00;5047093;28;20481;-69
2023/10/08 03:23:33;;;;;;;3.58;1.05;;;;;;;14.80;96.28;101306.56;5046410;28;20048;-69
2023/10/08 03:26:10;;;;;;;2.25;0.55;;;;;;;14.78;97.54;101303.28;5044780;28;20033;-69
2023/10/08 03:28:37;;;;;;;3.75;1.00;;;;;;;14.81;97.21;101302.97;5047478;28;20051;-69
2023/10/08 03:31:04;;;;;;;3.08;0.70;;;;;;;14.86;97.07;101305.97;5048284;28;20067;-69
2023/10/08 03:33:35;;;;;;;2.33;0.90;;;;;;;14.88;96.65;101306.66;5045353;28;20032;-69
2023/10/08 03:36:09;;;;;;;3.20;1.13;;;;;;;14.88;96.39;101303.19;5047410;28;20098;-69
2023/10/08 03:38:44;;;;;;;3.08;0.77;;;;;;;14.84;97.07;101307.09;5046936;28;20416;-69
2023/10/08 03:41:20;;;;;;;;;;;;;;;14.82;98.05;101309.88;5049899;28;20035;-69
2023/10/08 03:44:01;;;;;;;2.40;0.80;;;;;;;14.79;97.54;101304.91;5047316;28;20279;-69
2023/10/08 03:46:31;;;;;;;2.80;0.75;;;;;;;14.78;97.83;101312.94;5046257;28;20291;-69
2023/10/08 03:48:57;;;;;;;1.83;0.75;;;;;;;14.78;97.08;101315.56;5048139;28;20033;-69
2023/10/08 03:51:27;;;;;;;3.63;0.70;;;;;;;14.78;97.37;101311.16;5047838;28;20033;-69
2023/10/08 03:54:06;;;;;;;3.17;0.82;;;;;;;14.78;97.29;101305.91;5044266;28;20431;-69
2023/10/08 03:56:35;;;;;;;3.38;0.85;;;;;;;14.78;96.85;101292.78;5046628;28;20036;-69
2023/10/08 03:59:12;;;;;;;3.35;0.88;;;;;;;14.73;98.06;101305.53;5046788;28;20472;-69
2023/10/08 04:01:44;;;;;;;3.10;0.88;;;;;;;14.74;97.56;101301.09;5044080;28;20447;-69
2023/10/08 04:04:13;;;;;;;3.90;0.80;;;;;;;14.73;97.11;101302.06;5039132;28;20029;-69
2023/10/08 04:06:47;;;;;;;2.35;0.80;;;;;;;14.72;97.28;101298.63;5032228;28;20040;-69
2023/10/08 04:09:17;;;;;;;4.60;1.02;;;;;;;14.72;98.35;101301.25;5048902;28;20074;-69
2023/10/08 04:11:56;;;;;;;2.90;0.73;;;;;;;14.76;97.65;101309.66;5051721;28;20041;-69
2023/10/08 04:14:23;;;;;;;2.90;0.80;;;;;;;14.77;96.52;101312.13;5041679;28;20061;-69
2023/10/08 04:16:52;;;;;;;4.13;1.02;;;;;;;14.75;97.35;101308.81;5043375;28;20428;-69
2023/10/08 04:19:20;;;;;;;2.58;0.98;;;;;;;14.74;97.21;101307.16;5049490;28;20036;-69
2023/10/08 04:21:53;;;;;;;2.45;0.93;;;;;;;14.70;97.81;101300.56;5048834;28;20035;-69
2023/10/08 04:24:20;;;;;;;2.42;0.70;;;;;;;14.72;96.97;101311.75;5036166;28;20412;-69
2023/10/08 04:26:46;;;;;;;2.85;0.95;;;;;;;14.71;96.87;101294.34;5042954;28;20025;-69
2023/10/08 04:29:16;;;;;;;3.05;1.05;;;;;;;14.72;96.70;101303.88;5049301;28;20369;-69
2023/10/08 04:31:46;;;;;;;2.65;1.00;;;;;;;14.67;96.44;101308.75;5054761;28;20033;-69
2023/10/08 04:34:22;;;;;;;5.10;1.08;;;;;;;14.64;96.06;101301.22;5049771;28;20028;-70
2023/10/08 04:36:54;;;;;;;;;;;;;;;14.51;97.61;101316.50;5053941;28;20120;-69
2023/10/08 04:39:29;;;;;;;2.72;0.85;;;;;;;14.37;97.04;101296.81;5044357;28;19918;-69
2023/10/08 04:41:58;;;;;;;5.60;0.77;;;;;;;14.28;97.48;101306.38;5044043;28;20083;-69
2023/10/08 04:44:25;;;;;;;3.08;1.08;;;;;;;14.18;97.80;101297.75;5043389;28;20453;-69
2023/10/08 04:46:52;;;;;;;5.50;1.23;;;;;;;14.12;98.76;101298.38;5048739;28;20067;-69
2023/10/08 04:49:27;;;;;;;1.90;0.68;;;;;;;14.25;99.95;101301.44;5052603;28;20495;-69
2023/10/08 04:52:14;;;;;;;2.40;0.90;;;;;;;14.35;99.40;101306.63;5046913;28;20111;-69
2023/10/08 04:54:41;;;;;;;7.57;1.40;;;;;;;14.41;97.98;101310.44;5047384;28;20044;-69
2023/10/08 04:57:15;;;;;;;2.72;1.00;;;;;;;14.34;97.93;101299.72;5052488;28;20029;-69
2023/10/08 04:59:41;;;;;;;7.15;2.58;;;;;;;14.20;98.43;101311.53;5046754;28;20151;-69
2023/10/08 05:04:47;;;;;;;3.58;1.10;;;;;;;14.27;99.27;101303.91;5052048;28;20412;-70
2023/10/08 05:07:40;;;;;;;2.15;0.88;;;;;;;14.37;97.87;101314.34;5052629;28;20071;-69
2023/10/08 05:28:46;;;;;;;3.28;1.10;;;;;;;14.56;98.36;101322.09;5048764;28;20123;-69
2023/10/08 05:36:50;;;;;;;3.20;1.02;;;;;;;14.58;99.07;101326.22;5046943;28;20172;-69
2023/10/08 05:39:29;;;;;;;3.70;0.98;;;;;;;14.59;99.14;101324.44;5046114;28;20025;-69
2023/10/08 05:42:14;;;;;;;2.03;0.70;;;;;;;14.62;98.43;101318.88;5052606;28;20115;-69
2023/10/08 05:44:45;;;;;;;2.30;0.75;;;;;;;14.65;98.01;101328.25;5052195;28;20059;-69
2023/10/08 05:47:37;;;;;;;2.47;0.90;;;;;;;14.65;97.39;101323.81;5046882;28;20040;-69
2023/10/08 05:50:38;;;;;;;2.33;0.98;;;;;;;14.70;97.40;101313.69;5047794;28;20064;-69
2023/10/08 05:53:15;;;;;;;3.97;1.27;;;;;;;14.77;97.33;101330.47;5043747;28;20040;-69
2023/10/08 05:55:47;;;;;;;2.13;0.80;;;;;;;14.84;97.09;101344.66;5045421;28;20041;-69
2023/10/08 05:58:13;;;;;;;5.10;1.45;;;;;;;14.87;96.72;101325.97;5048255;28;20044;-69
2023/10/08 06:01:09;;;;;;;5.97;1.40;;;;;;;14.91;96.65;101324.69;5051792;28;20036;-69
2023/10/08 06:03:35;;;;;;;5.32;1.05;;;;;;;15.03;95.30;101333.16;5051919;28;20123;-70
2023/10/08 06:08:51;;;;;;;2.08;0.82;;;;;;;15.20;94.97;101334.09;5048436;28;20056;-69
2023/10/08 06:14:13;;;;;;;2.90;0.90;;;;;;;15.31;94.32;101340.91;5045555;28;20123;-70
2023/10/08 06:16:44;;;;;;;3.35;1.33;;;;;;;15.31;94.72;101346.97;5050607;28;20034;-69
2023/10/08 06:19:13;;;;;;;3.33;1.13;;;;;;;15.31;94.54;101340.91;5047622;28;20096;-70
2023/10/08 06:21:41;;;;;;;4.95;1.10;;;;;;;15.34;94.56;101351.09;5039955;28;20103;-69
2023/10/08 06:24:10;;;;;;;3.08;1.17;;;;;;;15.38;94.41;101348.00;5055458;28;20032;-69
2023/10/08 06:26:42;;;;;;;3.80;0.93;;;;;;;15.46;94.04;101345.44;5048065;28;20045;-70
2023/10/08 06:29:27;;;;;;;3.63;1.10;;;;;;;15.60;93.53;101354.56;5044751;28;20378;-70
2023/10/08 06:32:01;;;;;;;4.05;1.10;;;;;;;15.55;93.62;101362.06;5045890;28;20036;-70
2023/10/08 06:34:28;;;;;;;5.93;1.30;;;;;;;15.54;93.93;101363.88;5048692;28;20051;-70
2023/10/08 06:36:55;;;;;;;4.88;0.80;;;;;;;15.52;93.65;101357.13;5046890;28;20029;-70
2023/10/08 06:39:28;;;;;;;4.75;1.00;;;;;;;15.51;93.58;101356.31;5050151;28;20140;-70
2023/10/08 06:41:56;;;;;;;6.30;1.35;;;;;;;15.55;93.61;101364.69;5039726;28;20169;-70
2023/10/08 06:44:22;;;;;;;2.35;0.55;;;;;;;15.57;93.48;101357.53;5050461;28;20496;-69
2023/10/08 06:46:48;;;;;;;5.68;1.10;;;;;;;15.59;93.78;101356.38;5045418;28;20085;-70
2023/10/08 06:49:13;;;;;;;2.03;0.70;;;;;;;15.62;93.61;101357.03;5052646;28;20481;-70
2023/10/08 06:51:41;;;;;;;3.40;1.05;;;;;;;15.71;93.39;101363.97;5049094;28;20032;-70
2023/10/08 06:54:10;;;;;;;4.25;1.13;;;;;;;15.84;92.48;101357.31;5046174;28;20029;-70
2023/10/08 06:56:35;;;;;;;3.38;0.60;;;;;;;15.95;91.95;101360.66;5043889;28;20024;-70
2023/10/08 06:59:01;;;;;;;3.17;0.70;;;;;;;16.03;91.88;101360.69;5048523;28;20048;-70
2023/10/08 07:01:39;;;;;;;4.07;1.40;;;;;;;16.11;91.43;101361.53;5050783;28;20033;-70
2023/10/08 07:04:12;;;;;;;3.88;1.30;;;;;;;16.24;90.54;101361.09;5048856;28;20063;-70
2023/10/08 07:06:46;;;;;;;4.75;1.40;;;;;;;16.36;90.12;101366.88;5050057;28;20486;-70
2023/10/08 07:09:22;;;;;;;3.27;0.80;;;;;;;16.42;89.88;101355.72;5042087;28;20104;-70
2023/10/08 07:11:49;;;;;;;2.88;0.68;;;;;;;16.43;89.81;101360.81;5050086;28;20025;-70
2023/10/08 07:14:14;;;;;;;3.45;0.95;;;;;;;16.46;89.78;101371.03;5047414;28;20396;-71
2023/10/08 07:16:41;;;;;;;5.32;1.30;;;;;;;16.49;89.87;101370.69;5049035;28;20024;-71
2023/10/08 07:19:15;;;;;;;2.55;0.57;;;;;;;16.53;89.69;101365.94;5048229;28;20036;-71
2023/10/08 07:21:47;;;;;;;2.83;1.15;;;;;;;16.52;89.70;101366.94;5047358;28;20115;-69
2023/10/08 07:24:16;;;;;;;3.22;0.82;;;;;;;16.54;89.92;101373.66;5042474;28;20065;-68
2023/10/08 07:26:46;;;;;;;3.67;0.95;;;;;;;16.55;89.62;101362.13;5043527;28;20408;-69
2023/10/08 07:29:16;;;;;;;2.05;0.88;;;;;;;16.61;89.36;101360.66;5045829;28;20438;-69
2023/10/08 07:31:42;;;;;;;2.40;1.02;;;;;;;16.68;89.51;101364.34;5047887;28;20380;-69
2023/10/08 07:36:50;;;;;;;4.93;0.93;;;;;;;16.88;88.50;101367.50;5044978;28;20455;-68
2023/10/08 07:41:59;;;;;;;4.75;1.20;;;;;;;17.06;88.27;101362.88;5049454;28;20040;-69
2023/10/08 07:44:28;;;;;;;3.42;1.00;;;;;;;17.18;87.86;101360.72;5040424;28;20037;-69
2023/10/08 07:46:57;;;;;;;5.07;1.52;;;;;;;17.29;87.24;101355.13;5046312;28;20447;-69
2023/10/08 07:49:25;;;;;;;5.82;1.52;;;;;;;17.42;86.75;101363.34;5049689;28;20489;-69
2023/10/08 07:51:51;;;;;;;4.07;0.88;;;;;;;17.51;86.24;101362.31;5046242;28;20045;-69
2023/10/08 07:54:34;;;;;;;3.55;0.95;;;;;;;17.51;86.24;101359.69;5034649;28;20483;-69
2023/10/08 07:57:08;;;;;;;2.85;1.02;;;;;;;17.57;86.35;101350.28;5044409;28;20040;-69
2023/10/08 07:59:38;;;;;;;3.47;0.85;;;;;;;17.68;86.20;101349.16;5052951;28;20040;-69
2023/10/08 08:02:09;;;;;;;2.13;0.55;;;;;;;17.71;84.93;101348.81;5052543;28;20060;-70
2023/10/08 08:04:36;;;;;;;1.67;0.60;;;;;;;17.75;85.24;101350.94;5044228;28;20025;-69
2023/10/08 08:07:04;;;;;;;3.08;0.57;;;;;;;17.86;84.63;101349.75;5042090;28;20028;-70
2023/10/08 08:09:30;;;;;;;1.92;0.75;;;;;;;17.98;83.85;101352.81;5034356;28;20037;-70
2023/10/08 08:11:57;;;;;;;2.25;0.60;;;;;;;18.05;84.01;101351.97;5037627;28;20029;-70
2023/10/08 08:14:24;;;;;;;2.85;0.88;;;;;;;18.12;83.08;101346.81;5036820;28;20053;-70
2023/10/08 08:16:51;;;;;;;4.32;0.70;;;;;;;18.17;83.15;101355.03;5043911;28;20056;-69
2023/10/08 08:19:17;;;;;;;1.60;0.40;;;;;;;18.21;83.00;101351.88;5043634;28;20033;-70
2023/10/08 08:21:45;;;;;;;2.05;0.77;;;;;;;18.18;83.00;101344.31;5041919;28;20033;-70
2023/10/08 08:24:28;;;;;;;3.38;0.80;;;;;;;18.23;82.49;101342.00;5039057;28;20029;-70
2023/10/08 08:27:31;;;;;;;3.08;0.65;;;;;;;18.35;82.28;101341.59;5038436;28;20083;-69
2023/10/08 08:29:52;;;;;;;1.58;0.60;;;;;;;18.41;82.20;101347.00;5049119;28;20274;-70
2023/10/08 08:32:21;;;;;;;2.42;0.80;;;;;;;18.49;82.65;101351.38;5053560;28;20029;-70
2023/10/08 08:34:50;;;;;;;1.38;0.40;;;;;;;18.48;81.88;101337.38;5042415;28;20044;-70
2023/10/08 08:37:16;;;;;;;1.95;0.98;;;;;;;18.50;82.26;101337.19;5039141;28;20480;-70
2023/10/08 08:39:42;;;;;;;3.28;0.90;;;;;;;18.62;82.51;101341.09;5041340;28;20052;-70
2023/10/08 08:42:08;;;;;;;2.85;0.70;;;;;;;18.73;82.10;101338.06;5043303;28;20037;-70
2023/10/08 08:44:45;;;;;;;2.78;0.73;;;;;;;18.86;80.76;101340.13;5041565;28;20392;-69
2023/10/08 08:47:17;;;;;;;3.25;0.68;;;;;;;19.02;80.46;101331.22;5046285;28;20059;-70
2023/10/08 08:49:46;;;;;;;2.22;0.60;;;;;;;19.19;79.76;101338.81;5040383;28;20036;-70
2023/10/08 08:52:12;;;;;;;2.03;0.75;;;;;;;19.27;79.97;101334.47;5047610;28;20036;-70
2023/10/08 08:54:39;;;;;;;2.25;0.60;;;;;;;19.25;79.92;101336.47;5045088;28;20033;-70
2023/10/08 08:57:06;;;;;;;4.80;0.90;;;;;;;19.30;79.60;101345.50;5036061;28;20060;-70
2023/10/08 08:59:32;;;;;;;1.50;0.65;;;;;;;19.37;80.39;101348.25;5042909;28;20037;-69
2023/10/08 09:01:59;;;;;;;3.08;0.60;;;;;;;19.40;79.76;101345.19;5038880;28;20025;-70
2023/10/08 09:04:32;;;;;;;2.17;0.70;;;;;;;19.37;79.14;101349.06;5041763;28;20044;-70
2023/10/08 09:07:04;;;;;;;1.77;0.75;;;;;;;19.38;78.58;101342.75;5044628;28;20021;-70
2023/10/08 09:09:44;;;;;;;1.55;0.75;;;;;;;19.40;78.13;101342.56;5042284;28;20043;-70
2023/10/08 09:12:10;;;;;;;1.65;0.60;;;;;;;19.38;79.21;101336.63;5043878;28;20029;-69
2023/10/08 09:14:36;;;;;;;1.05;0.40;;;;;;;19.39;79.82;101343.56;5040649;28;20388;-69
2023/10/08 09:17:05;;;;;;;2.03;0.50;;;;;;;19.42;79.26;101354.59;5041380;28;20037;-69
2023/10/08 09:19:36;;;;;;;2.47;0.65;;;;;;;19.48;79.62;101348.59;5038059;28;20103;-69
2023/10/08 09:22:05;;;;;;;1.48;0.60;;;;;;;19.54;78.21;101345.25;5043817;28;20024;-70
2023/10/08 09:24:33;;;;;;;5.07;0.68;;;;;;;19.66;77.72;101345.63;5038999;28;20051;-70
2023/10/08 09:27:00;;;;;;;1.38;0.55;;;;;;;19.65;78.47;101336.06;5039720;28;20057;-69
2023/10/08 09:29:26;;;;;;;1.70;0.60;;;;;;;19.61;79.04;101341.88;5042893;28;20046;-69
2023/10/08 09:31:59;;;;;;;1.73;0.63;;;;;;;19.61;79.49;101336.59;5038499;28;20457;-69
2023/10/08 09:34:32;;;;;;;1.38;0.50;;;;;;;19.56;79.28;101339.78;5038155;28;20037;-75
2023/10/08 09:37:02;;;;;;;1.80;0.85;;;;;;;19.45;79.16;101341.03;5041971;28;20025;-74
2023/10/08 09:39:33;;;;;;;1.70;0.50;;;;;;;19.52;79.33;101344.63;5039742;28;20503;-73
2023/10/08 09:42:02;;;;;;;2.50;0.50;;;;;;;19.54;79.45;101339.16;5040531;28;20377;-74
2023/10/08 09:44:28;;;;;;;3.40;0.73;;;;;;;19.58;79.84;101342.25;5038732;28;20036;-74
2023/10/08 09:47:04;;;;;;;2.10;0.50;;;;;;;19.75;77.19;101338.44;5042709;28;20045;-75
2023/10/08 09:49:36;;;;;;;;;;;;;;;19.86;75.80;101330.00;5042329;28;20513;-74
2023/10/08 09:52:05;;;;;;;1.95;0.77;;;;;;;19.86;77.64;101332.66;5037547;28;19975;-72
2023/10/08 09:54:44;;;;;;;3.17;0.52;;;;;;;19.83;78.29;101330.41;5038019;28;20037;-74
2023/10/08 09:57:11;;;;;;;6.15;0.73;;;;;;;19.92;77.70;101326.63;5037181;28;20041;-73
2023/10/08 09:59:41;;;;;;;1.52;0.60;;;;;;;20.11;76.66;101323.41;5036783;28;20488;-73
2023/10/08 10:02:09;;;;;;;4.43;1.38;;;;;;;20.19;76.47;101317.19;5037549;28;20033;-73
2023/10/08 10:04:35;;;;;;;2.45;0.80;;;;;;;20.14;77.70;101312.47;5038324;28;20032;-73
2023/10/08 10:07:12;;;;;;;2.65;1.02;;;;;;;20.12;76.80;101313.66;5041466;28;20060;-72
2023/10/08 10:09:42;;;;;;;5.25;0.95;;;;;;;20.31;74.69;101310.41;5040776;28;20472;-74
2023/10/08 10:12:11;;;;;;;4.70;1.52;;;;;;;20.51;74.79;101314.09;5039731;28;20028;-73
2023/10/08 10:14:45;;;;;;;2.70;1.00;;;;;;;20.49;74.12;101317.94;5035295;28;20091;-73
2023/10/08 10:17:20;;;;;;;2.72;0.90;;;;;;;20.62;75.00;101307.47;5041951;28;20478;-73
2023/10/08 10:19:51;;;;;;;3.47;1.23;;;;;;;20.67;75.74;101312.19;5041604;28;20128;-73
2023/10/08 10:22:28;;;;;;;2.80;1.27;;;;;;;20.63;75.44;101322.34;5039456;28;20029;-74
2023/10/08 10:24:54;;;;;;;7.50;1.40;;;;;;;20.63;74.96;101316.22;5036751;28;20033;-72
2023/10/08 10:27:19;;;;;;;6.63;1.55;;;;;;;20.80;74.70;101307.00;5039170;28;20029;-73
2023/10/08 10:29:47;;;;;;;3.60;1.30;;;;;;;20.84;74.53;101298.47;5041237;28;20037;-69
2023/10/08 10:32:14;;;;;;;7.80;2.55;;;;;;;20.96;74.44;101303.25;5034203;28;20029;-71
2023/10/08 10:34:42;;;;;;;4.13;2.00;;;;;;;21.01;74.06;101299.03;5035074;28;20037;-71
2023/10/08 10:37:25;;;;;;;6.35;1.85;;;;;;;21.08;74.74;101299.06;5049919;28;20021;-71
2023/10/08 10:40:00;;;;;;;5.35;2.63;;;;;;;21.19;74.22;101287.94;5038879;28;20040;-71
2023/10/08 10:42:28;;;;;;;;;;;;;;;21.20;73.43;101290.41;5032178;28;20026;-71
2023/10/08 10:44:56;;;;;;;7.53;2.97;;;;;;;21.21;74.86;101285.97;5031905;28;19913;-71
2023/10/08 10:50:10;;;;;;;5.70;2.47;;;;;;;21.27;74.97;101279.84;5032767;28;20049;-71
2023/10/08 10:52:51;;;;;;;10.40;4.00;;;;;;;21.30;75.09;101278.66;5039047;28;20082;-71
2023/10/08 10:55:20;;;;;;;8.82;3.65;;;;;;;21.36;74.88;101280.50;5033722;28;20075;-71
2023/10/08 10:58:39;;;;;;;7.63;3.50;;;;;;;21.39;75.14;101269.53;5033252;28;20727;-71
2023/10/08 11:03:23;;;;;;;8.00;3.28;;;;;;;21.36;75.68;101268.09;5033343;28;20036;-71
2023/10/08 11:06:05;;;;;;;9.27;3.38;;;;;;;21.26;74.44;101258.88;5034469;28;20041;-70
2023/10/08 11:08:34;;;;;;;7.45;3.30;;;;;;;21.22;75.63;101261.09;5036116;28;20072;-71
2023/10/08 11:11:05;;;;;;;7.90;3.63;;;;;;;21.21;75.78;101254.16;5032863;28;20029;-71
2023/10/08 11:13:37;;;;;;;6.05;3.03;;;;;;;21.16;76.57;101249.41;5034678;28;20048;-71
2023/10/08 11:16:05;;;;;;;5.32;3.08;;;;;;;21.19;76.89;101248.19;5038728;28;20362;-70
2023/10/08 11:18:30;;;;;;;7.53;3.63;;;;;;;21.22;77.05;101252.31;5034988;28;20089;-71
2023/10/08 11:21:13;;;;;;;9.38;3.72;;;;;;;21.23;75.55;101252.13;5037711;28;20033;-70
2023/10/08 11:23:52;;;;;;;7.32;3.47;;;;;;;21.26;75.16;101237.66;5034687;28;20448;-70
2023/10/08 11:26:19;;;;;;;7.28;3.35;;;;;;;21.28;75.64;101240.91;5038011;28;20029;-70
2023/10/08 11:28:47;;;;;;;7.13;3.42;;;;;;;21.21;75.10;101235.59;5036596;28;20503;-70
2023/10/08 11:31:20;;;;;;;6.63;3.75;;;;;;;21.31;74.61;101241.34;5033714;28;20036;-71
2023/10/08 11:33:53;;;;;;;7.70;3.40;;;;;;;21.40;74.29;101239.34;5044919;28;20029;-71
2023/10/08 11:36:27;;;;;;;7.25;3.38;;;;;;;21.44;75.52;101235.28;5036628;28;20116;-70
2023/10/08 11:39:00;;;;;;;10.20;3.83;;;;;;;21.39;73.13;101230.59;5037337;28;20037;-70
2023/10/08 11:41:27;;;;;;;5.40;3.08;;;;;;;21.51;73.26;101234.31;5036108;28;20025;-71
2023/10/08 11:43:57;;;;;;;7.40;3.33;;;;;;;21.51;71.54;101229.00;5037600;28;20029;-70
2023/10/08 11:46:32;;;;;;;6.00;3.30;;;;;;;21.69;72.47;101225.00;5035570;28;20037;-71
2023/10/08 11:49:03;;;;;;;7.88;3.13;;;;;;;21.72;73.71;101216.66;5040554;28;20036;-71
2023/10/08 11:51:30;;;;;;;4.65;2.55;;;;;;;21.73;73.70;101226.25;5040446;28;20052;-71
2023/10/08 11:53:56;;;;;;;7.28;2.72;;;;;;;21.72;74.30;101222.78;5038036;28;20495;-71
2023/10/08 11:56:23;;;;;;;8.15;3.55;;;;;;;21.69;73.38;101214.41;5036806;28;20037;-70
2023/10/08 11:58:49;;;;;;;7.07;3.70;;;;;;;21.66;73.21;101210.31;5040310;28;20091;-71
2023/10/08 12:01:15;;;;;;;6.38;3.45;;;;;;;21.60;73.50;101199.69;5037855;28;20057;-71
2023/10/08 12:03:44;;;;;;;5.30;2.90;;;;;;;21.55;73.70;101204.75;5042652;28;20037;-70
2023/10/08 12:06:15;;;;;;;5.50;2.92;;;;;;;21.52;73.77;101198.84;5043941;28;20385;-71
2023/10/08 12:08:41;;;;;;;5.93;2.67;;;;;;;21.46;74.67;101202.28;5040113;28;20028;-71
2023/10/08 12:11:11;;;;;;;6.55;3.47;;;;;;;21.38;74.58;101199.78;5038367;28;20307;-70
2023/10/08 12:13:38;;;;;;;7.20;3.55;;;;;;;21.39;74.69;101206.72;5045328;28;20051;-70
2023/10/08 12:16:07;;;;;;;8.18;2.88;;;;;;;21.39;74.67;101209.38;5039527;28;20057;-71
2023/10/08 12:18:39;;;;;;;4.85;2.47;;;;;;;21.43;75.28;101201.84;5045495;28;20037;-70
2023/10/08 12:21:10;;;;;;;7.68;2.70;;;;;;;21.43;75.30;101201.84;5045574;28;20098;-70
2023/10/08 12:23:37;;;;;;;8.13;3.13;;;;;;;21.54;73.75;101203.94;5047088;28;20033;-71
2023/10/08 12:26:03;;;;;;;6.63;3.17;;;;;;;21.56;73.67;101201.09;5043254;28;20029;-70
2023/10/08 12:28:29;;;;;;;6.38;2.60;;;;;;;21.67;72.93;101192.56;5042546;28;20090;-70
2023/10/08 12:30:55;;;;;;;6.57;2.72;;;;;;;21.84;71.75;101184.03;5044836;28;20036;-70
2023/10/08 12:33:24;;;;;;;5.72;2.25;;;;;;;21.91;72.07;101178.72;5045179;28;20086;-70
2023/10/08 12:35:53;;;;;;;5.15;2.30;;;;;;;21.91;72.46;101184.03;5040883;28;20040;-70